createdAt,value
2019-03-26T00:02:31.061Z,5.15
2019-03-26T00:05:33.002Z,5.17
2019-03-26T00:08:34.938Z,5.17
2019-03-26T00:11:36.829Z,5.19
2019-03-26T00:14:38.826Z,5.16
2019-03-26T00:17:40.738Z,5.19
2019-03-26T00:20:42.693Z,5.16
2019-03-26T00:23:44.680Z,5.17
2019-03-26T00:26:46.644Z,5.21
2019-03-26T00:29:48.587Z,5.16
2019-03-26T00:32:50.508Z,5.15
2019-03-26T00:35:52.447Z,5.17
2019-03-26T00:38:54.399Z,5.21
2019-03-26T00:41:56.407Z,5.14
2019-03-26T00:44:58.368Z,5.13
2019-03-26T00:48:00.258Z,5.08
2019-03-26T00:51:02.185Z,5.05
2019-03-26T00:54:04.086Z,5.02
2019-03-26T00:57:06.064Z,5.09
2019-03-26T01:00:09.392Z,5.05
2019-03-26T01:03:11.477Z,5.01
2019-03-26T01:06:13.431Z,5.02
2019-03-26T01:09:15.358Z,5.04
2019-03-26T01:12:17.284Z,5.07
2019-03-26T01:15:19.267Z,5.07
2019-03-26T01:18:21.142Z,5.04
2019-03-26T01:21:23.107Z,5.06
2019-03-26T01:24:25.097Z,5.04
2019-03-26T01:27:27.030Z,5.02
2019-03-26T01:30:29.124Z,4.97
2019-03-26T01:33:31.001Z,4.95
2019-03-26T01:36:32.985Z,4.96
2019-03-26T01:39:34.874Z,4.95
2019-03-26T01:42:36.823Z,4.97
2019-03-26T01:45:38.702Z,5.03
2019-03-26T01:48:40.609Z,5.02
2019-03-26T01:51:42.521Z,5.06
2019-03-26T01:54:44.480Z,5.06
2019-03-26T01:57:46.401Z,5.03
2019-03-26T02:00:48.592Z,5.07
2019-03-26T02:03:50.503Z,5.05
2019-03-26T02:06:52.410Z,5.05
2019-03-26T02:09:54.371Z,5.07
2019-03-26T02:12:56.329Z,5.08
2019-03-26T02:15:59.429Z,5.14
2019-03-26T02:19:01.401Z,5.13
2019-03-26T02:22:04.632Z,5.18
2019-03-26T02:25:06.729Z,5.18
2019-03-26T02:28:08.618Z,5.24
2019-03-26T02:31:10.584Z,5.27
2019-03-26T02:34:12.511Z,5.30
2019-03-26T02:37:14.423Z,5.34
2019-03-26T02:40:16.348Z,5.34
2019-03-26T02:43:18.276Z,5.31
2019-03-26T02:46:20.284Z,5.32
2019-03-26T02:49:22.221Z,5.32
2019-03-26T02:52:24.198Z,5.32
2019-03-26T02:55:26.105Z,5.33
2019-03-26T02:58:28.084Z,5.31
2019-03-26T03:01:30.250Z,5.24
2019-03-26T03:04:32.202Z,5.25
2019-03-26T03:07:34.147Z,5.22
2019-03-26T03:10:36.083Z,5.11
2019-03-26T03:13:38.040Z,5.08
2019-03-26T03:16:40.034Z,5.09
2019-03-26T03:19:42.001Z,5.07
2019-03-26T03:22:43.942Z,5.03
2019-03-26T03:25:45.890Z,5.08
2019-03-26T03:28:47.957Z,5.10
2019-03-26T03:31:49.928Z,5.12
2019-03-26T03:34:51.959Z,5.14
2019-03-26T03:37:53.898Z,5.15
2019-03-26T03:40:55.928Z,5.15
2019-03-26T03:43:57.825Z,5.10
2019-03-26T03:47:01.367Z,5.17
2019-03-26T03:50:05.542Z,5.22
2019-03-26T03:53:08.711Z,5.18
2019-03-26T03:56:13.246Z,5.24
2019-03-26T03:59:16.022Z,5.20
2019-03-26T04:02:18.279Z,5.12
2019-03-26T04:05:20.309Z,5.14
2019-03-26T04:08:22.234Z,5.09
2019-03-26T04:11:24.189Z,5.01
2019-03-26T04:14:26.153Z,5.00
2019-03-26T04:17:28.145Z,4.96
2019-03-26T04:20:30.031Z,4.97
2019-03-26T04:23:33.309Z,4.97
2019-03-26T04:26:36.087Z,4.99
2019-03-26T04:29:40.906Z,5.02
2019-03-26T04:32:42.907Z,5.11
2019-03-26T04:35:44.867Z,5.23
2019-03-26T04:38:46.865Z,5.22
2019-03-26T04:41:48.824Z,5.25
2019-03-26T04:44:50.803Z,5.21
2019-03-26T04:47:52.763Z,5.25
2019-03-26T04:50:54.787Z,5.19
2019-03-26T04:53:56.767Z,5.16
2019-03-26T04:56:58.841Z,5.15
2019-03-26T05:00:00.744Z,5.13
2019-03-26T05:03:02.914Z,5.13
2019-03-26T05:06:04.842Z,5.14
2019-03-26T05:09:06.831Z,5.18
2019-03-26T05:12:08.749Z,5.22
2019-03-26T05:15:11.121Z,5.18
2019-03-26T05:18:13.043Z,5.17
2019-03-26T05:21:16.318Z,5.16
2019-03-26T05:24:18.289Z,5.18
2019-03-26T05:27:22.159Z,5.15
2019-03-26T05:30:24.667Z,5.17
2019-03-26T05:33:27.830Z,5.14
2019-03-26T05:36:29.882Z,5.25
2019-03-26T05:39:31.827Z,5.29
2019-03-26T05:42:33.789Z,5.31
2019-03-26T05:45:35.873Z,5.33
2019-03-26T05:48:37.773Z,5.33
2019-03-26T05:51:39.750Z,5.31
2019-03-26T05:54:41.665Z,5.36
2019-03-26T05:57:43.597Z,5.36
2019-03-26T06:00:45.551Z,5.44
2019-03-26T06:03:47.713Z,5.42
2019-03-26T06:06:49.711Z,5.50
2019-03-26T06:09:51.661Z,5.72
2019-03-26T06:12:53.694Z,6.98
2019-03-26T06:15:55.698Z,7.54
2019-03-26T06:18:57.690Z,7.71
2019-03-26T06:21:59.625Z,7.69
2019-03-26T06:25:01.544Z,7.41
2019-03-26T06:28:03.538Z,7.15
2019-03-26T06:31:05.484Z,6.85
2019-03-26T06:34:10.383Z,6.56
2019-03-26T06:37:17.692Z,6.51
2019-03-26T06:40:15.657Z,6.56
2019-03-26T06:43:17.624Z,6.60
2019-03-26T06:46:19.535Z,6.60
2019-03-26T06:49:21.584Z,6.46
2019-03-26T06:52:23.566Z,6.57
2019-03-26T06:55:25.614Z,6.89
2019-03-26T06:58:28.637Z,7.69
2019-03-26T07:01:30.879Z,8.27
2019-03-26T07:04:32.984Z,8.06
2019-03-26T07:07:35.008Z,8.07
2019-03-26T07:10:38.312Z,8.12
2019-03-26T07:13:40.270Z,8.29
2019-03-26T07:16:42.215Z,8.34
2019-03-26T07:19:44.184Z,8.90
2019-03-26T07:22:46.154Z,9.20
2019-03-26T07:25:48.100Z,9.32
2019-03-26T07:28:50.088Z,9.44
2019-03-26T07:31:52.023Z,9.12
2019-03-26T07:34:54.107Z,8.94
2019-03-26T07:37:56.045Z,8.90
2019-03-26T07:40:58.070Z,8.92
2019-03-26T07:44:00.085Z,9.13
2019-03-26T07:47:02.057Z,9.49
2019-03-26T07:50:06.166Z,9.72
2019-03-26T07:53:08.166Z,9.97
2019-03-26T07:56:10.096Z,10.29
2019-03-26T07:59:12.070Z,10.29
2019-03-26T08:02:14.038Z,10.03
2019-03-26T08:05:29.060Z,9.78
2019-03-26T08:08:19.997Z,10.16
2019-03-26T08:11:22.001Z,10.83
2019-03-26T08:14:23.933Z,11.18
2019-03-26T08:17:25.998Z,11.16
2019-03-26T08:20:27.912Z,11.09
2019-03-26T08:23:29.838Z,11.06
2019-03-26T08:26:32.079Z,11.00
2019-03-26T08:29:34.066Z,11.22
2019-03-26T08:32:37.255Z,11.62
2019-03-26T08:35:41.079Z,11.77
2019-03-26T08:38:43.001Z,11.61
2019-03-26T08:41:45.019Z,11.73
2019-03-26T08:44:46.998Z,11.70
2019-03-26T08:47:50.446Z,11.58
2019-03-26T08:50:52.382Z,11.76
2019-03-26T08:53:54.363Z,11.71
2019-03-26T08:56:56.344Z,11.58
2019-03-26T08:59:58.261Z,11.31
2019-03-26T09:03:00.229Z,10.94
2019-03-26T09:06:02.425Z,10.74
2019-03-26T09:09:06.405Z,10.58
2019-03-26T09:12:08.348Z,10.70
2019-03-26T09:15:14.061Z,10.84
2019-03-26T09:18:14.590Z,10.85
2019-03-26T09:21:16.591Z,10.84
2019-03-26T09:24:18.515Z,10.75
2019-03-26T09:27:21.027Z,10.61
2019-03-26T09:30:22.940Z,10.22
2019-03-26T09:33:24.875Z,9.87
2019-03-26T09:36:26.841Z,9.71
2019-03-26T09:39:28.884Z,9.80
2019-03-26T09:42:30.885Z,10.10
2019-03-26T09:45:32.917Z,10.27
2019-03-26T09:48:34.901Z,10.62
2019-03-26T09:51:36.874Z,10.70
2019-03-26T09:54:38.801Z,10.91
2019-03-26T09:57:40.773Z,11.13
2019-03-26T10:00:42.843Z,11.12
2019-03-26T10:03:45.013Z,10.68
2019-03-26T10:06:47.197Z,10.57
2019-03-26T10:09:49.208Z,10.33
2019-03-26T10:12:51.240Z,10.40
2019-03-26T10:15:53.350Z,10.78
2019-03-26T10:18:55.313Z,11.14
2019-03-26T10:21:57.278Z,11.27
2019-03-26T10:24:59.272Z,11.01
2019-03-26T10:28:01.324Z,10.92
2019-03-26T10:31:03.248Z,10.81
2019-03-26T10:34:05.204Z,10.71
2019-03-26T10:37:08.293Z,10.57
2019-03-26T10:40:13.940Z,10.49
2019-03-26T10:43:15.890Z,10.23
2019-03-26T10:46:18.352Z,10.05
2019-03-26T10:49:20.323Z,9.98
2019-03-26T10:52:22.252Z,9.97
2019-03-26T10:55:24.237Z,10.10
2019-03-26T10:58:26.166Z,10.06
2019-03-26T11:01:28.152Z,9.94
2019-03-26T11:04:30.476Z,9.91
2019-03-26T11:07:32.804Z,9.95
2019-03-26T11:10:37.826Z,10.18
2019-03-26T11:13:39.879Z,10.20
2019-03-26T11:16:41.831Z,10.09
2019-03-26T11:19:46.565Z,9.97
2019-03-26T11:22:48.664Z,9.76
2019-03-26T11:25:50.756Z,9.49
2019-03-26T11:28:52.801Z,9.33
2019-03-26T11:31:54.868Z,9.20
2019-03-26T11:34:56.851Z,9.24
2019-03-26T11:37:58.948Z,9.64
2019-03-26T11:41:00.936Z,10.12
2019-03-26T11:44:04.685Z,10.23
2019-03-26T11:47:06.932Z,10.28
2019-03-26T11:50:11.070Z,10.29
2019-03-26T11:53:13.055Z,10.34
2019-03-26T11:56:15.094Z,10.25
2019-03-26T11:59:17.010Z,10.03
2019-03-26T12:02:18.990Z,10.06
2019-03-26T12:05:21.671Z,10.07
2019-03-26T12:08:23.840Z,10.05
2019-03-26T12:11:25.796Z,9.69
2019-03-26T12:14:27.878Z,9.63
2019-03-26T12:17:29.873Z,9.44
2019-03-26T12:20:31.912Z,9.50
2019-03-26T12:23:33.838Z,9.53
2019-03-26T12:26:35.911Z,9.75
2019-03-26T12:29:37.910Z,9.79
2019-03-26T12:32:41.229Z,9.77
2019-03-26T12:35:43.513Z,9.48
2019-03-26T12:38:45.609Z,9.28
2019-03-26T12:41:47.547Z,9.50
2019-03-26T12:44:49.552Z,9.83
2019-03-26T12:47:51.489Z,9.83
2019-03-26T12:50:53.519Z,9.82
2019-03-26T12:53:55.452Z,9.82
2019-03-26T12:56:57.520Z,9.87
2019-03-26T13:00:00.823Z,9.98
2019-03-26T13:03:02.744Z,9.96
2019-03-26T13:06:04.656Z,9.75
2019-03-26T13:09:07.936Z,9.74
2019-03-26T13:12:09.832Z,9.75
2019-03-26T13:15:11.839Z,9.74
2019-03-26T13:18:13.763Z,9.79
2019-03-26T13:21:15.703Z,9.80
2019-03-26T13:24:17.624Z,9.83
2019-03-26T13:27:19.579Z,9.60
2019-03-26T13:30:24.573Z,9.35
2019-03-26T13:33:26.591Z,9.28
2019-03-26T13:36:28.554Z,9.26
2019-03-26T13:39:30.596Z,9.31
2019-03-26T13:42:32.574Z,9.32
2019-03-26T13:45:34.549Z,9.50
2019-03-26T13:48:37.597Z,9.55
2019-03-26T13:51:39.594Z,9.57
2019-03-26T13:54:41.542Z,9.54
2019-03-26T13:57:43.533Z,9.32
2019-03-26T14:00:45.559Z,9.22
2019-03-26T14:03:47.762Z,9.01
2019-03-26T14:06:52.369Z,8.73
2019-03-26T14:09:53.800Z,8.62
2019-03-26T14:12:55.796Z,8.63
2019-03-26T14:15:57.770Z,8.71
2019-03-26T14:18:59.781Z,8.96
2019-03-26T14:22:02.242Z,9.19
2019-03-26T14:25:04.323Z,9.20
2019-03-26T14:28:06.243Z,9.26
2019-03-26T14:31:08.299Z,9.44
2019-03-26T14:34:10.852Z,9.29
2019-03-26T14:37:12.869Z,9.22
2019-03-26T14:40:15.076Z,9.08
2019-03-26T14:43:17.117Z,8.95
2019-03-26T14:46:19.110Z,8.85
2019-03-26T14:49:21.106Z,8.71
2019-03-26T14:52:23.129Z,8.75
2019-03-26T14:55:25.082Z,8.82
2019-03-26T14:58:27.021Z,8.86
2019-03-26T15:01:28.964Z,8.68
2019-03-26T15:04:30.890Z,8.67
2019-03-26T15:07:32.839Z,8.76
2019-03-26T15:10:34.891Z,8.80
2019-03-26T15:13:36.812Z,8.89
2019-03-26T15:16:38.729Z,8.85
2019-03-26T15:19:40.673Z,8.72
2019-03-26T15:22:42.584Z,8.71
2019-03-26T15:25:44.626Z,8.66
2019-03-26T15:28:47.715Z,8.63
2019-03-26T15:31:50.029Z,8.58
2019-03-26T15:34:53.177Z,8.62
2019-03-26T15:37:55.456Z,8.61
2019-03-26T15:40:57.441Z,8.56
2019-03-26T15:43:59.318Z,8.42
2019-03-26T15:47:01.298Z,8.30
2019-03-26T15:50:06.072Z,8.26
2019-03-26T15:53:08.197Z,8.15
2019-03-26T15:56:10.110Z,8.14
2019-03-26T15:59:12.056Z,8.10
2019-03-26T16:02:13.917Z,8.07
2019-03-26T16:05:15.859Z,8.06
2019-03-26T16:08:18.970Z,7.99
2019-03-26T16:11:34.771Z,7.94
2019-03-26T16:14:27.990Z,7.91
2019-03-26T16:17:28.777Z,7.89
2019-03-26T16:20:30.633Z,7.79
2019-03-26T16:23:32.601Z,7.83
2019-03-26T16:26:34.469Z,7.82
2019-03-26T16:29:36.429Z,7.80
2019-03-26T16:32:38.367Z,7.79
2019-03-26T16:35:40.573Z,7.78
2019-03-26T16:38:43.942Z,7.80
2019-03-26T16:41:49.331Z,7.82
2019-03-26T16:44:51.636Z,7.72
2019-03-26T16:47:54.023Z,7.66
2019-03-26T16:50:56.817Z,7.74
2019-03-26T16:53:59.770Z,7.73
2019-03-26T16:57:03.308Z,7.75
2019-03-26T17:00:07.550Z,7.75
2019-03-26T17:03:11.560Z,7.81
2019-03-26T17:06:14.274Z,7.79
2019-03-26T17:09:16.509Z,7.81
2019-03-26T17:12:18.593Z,7.82
2019-03-26T17:15:21.810Z,7.75
2019-03-26T17:18:23.748Z,7.74
2019-03-26T17:21:25.676Z,7.70
2019-03-26T17:24:27.584Z,7.66
2019-03-26T17:27:29.519Z,7.64
2019-03-26T17:30:31.447Z,7.68
2019-03-26T17:33:33.406Z,7.67
2019-03-26T17:36:35.312Z,7.65
2019-03-26T17:39:37.994Z,7.62
2019-03-26T17:42:42.302Z,7.52
2019-03-26T17:45:44.332Z,7.49
2019-03-26T17:48:48.127Z,7.50
2019-03-26T17:51:50.506Z,7.46
2019-03-26T17:54:52.434Z,7.47
2019-03-26T17:57:54.349Z,7.48
2019-03-26T18:00:57.361Z,7.50
2019-03-26T18:04:02.925Z,7.50
2019-03-26T18:07:05.612Z,7.54
2019-03-26T18:10:09.817Z,7.52
2019-03-26T18:13:16.561Z,7.41
2019-03-26T18:16:18.547Z,7.43
2019-03-26T18:19:25.064Z,7.38
2019-03-26T18:22:28.104Z,7.40
2019-03-26T18:25:30.289Z,7.36
2019-03-26T18:28:32.570Z,7.35
2019-03-26T18:31:34.472Z,7.26
2019-03-26T18:34:39.722Z,7.21
2019-03-26T18:37:41.673Z,7.17
2019-03-26T18:40:44.349Z,7.21
2019-03-26T18:43:47.689Z,7.19
2019-03-26T18:46:53.220Z,6.99
2019-03-26T18:49:55.185Z,6.56
2019-03-26T18:52:59.095Z,6.14
2019-03-26T18:56:01.052Z,5.93
2019-03-26T18:59:03.220Z,5.77
2019-03-26T19:02:05.176Z,5.68
2019-03-26T19:05:08.277Z,5.69
2019-03-26T19:08:10.157Z,5.76
2019-03-26T19:11:12.219Z,5.82
2019-03-26T19:14:14.548Z,5.84
2019-03-26T19:17:16.531Z,5.86
2019-03-26T19:20:20.071Z,5.89
2019-03-26T19:23:25.092Z,5.85
2019-03-26T19:26:29.883Z,5.73
2019-03-26T19:29:32.924Z,5.71
2019-03-26T19:32:35.070Z,5.75
2019-03-26T19:35:37.028Z,5.78
2019-03-26T19:38:39.027Z,5.84
2019-03-26T19:41:43.131Z,5.91
2019-03-26T19:44:45.122Z,5.88
2019-03-26T19:47:47.379Z,5.84
2019-03-26T19:50:51.200Z,5.84
2019-03-26T19:53:53.186Z,5.84
2019-03-26T19:56:56.309Z,5.86
2019-03-26T19:59:58.324Z,5.86
2019-03-26T20:03:01.903Z,5.93
2019-03-26T20:06:13.379Z,6.00
2019-03-26T20:09:13.036Z,6.04
2019-03-26T20:12:21.647Z,6.00
2019-03-26T20:15:25.808Z,5.89
2019-03-26T20:18:28.084Z,5.77
2019-03-26T20:21:31.441Z,5.66
2019-03-26T20:24:33.487Z,5.56
2019-03-26T20:27:36.004Z,5.50
2019-03-26T20:30:38.612Z,5.46
2019-03-26T20:33:42.705Z,5.45
2019-03-26T20:36:47.328Z,5.47
2019-03-26T20:39:51.062Z,5.50
2019-03-26T20:42:55.552Z,5.44
2019-03-26T20:45:57.548Z,5.38
2019-03-26T20:48:59.507Z,5.34
2019-03-26T20:52:01.429Z,5.35
2019-03-26T20:55:08.621Z,5.30
2019-03-26T20:58:10.573Z,5.28
2019-03-26T21:01:16.531Z,5.22
2019-03-26T21:04:21.056Z,5.20
2019-03-26T21:07:24.352Z,5.24
2019-03-26T21:10:28.151Z,5.30
2019-03-26T21:13:30.161Z,5.33
2019-03-26T21:16:32.558Z,5.29
2019-03-26T21:19:34.882Z,5.23
2019-03-26T21:22:37.396Z,5.15
2019-03-26T21:25:39.346Z,5.09
2019-03-26T21:28:41.377Z,5.08
2019-03-26T21:31:43.310Z,5.10
2019-03-26T21:34:45.378Z,5.14
2019-03-26T21:37:47.472Z,5.19
2019-03-26T21:40:49.469Z,5.25
2019-03-26T21:44:03.602Z,5.32
2019-03-26T21:46:55.281Z,5.35
2019-03-26T21:49:57.207Z,5.36
2019-03-26T21:53:01.067Z,5.40
2019-03-26T21:56:06.882Z,5.49
2019-03-26T21:59:07.437Z,5.51
2019-03-26T22:02:09.473Z,5.44
2019-03-26T22:05:11.641Z,5.37
2019-03-26T22:08:13.543Z,5.30
2019-03-26T22:11:15.658Z,5.27
2019-03-26T22:14:18.620Z,5.28
2019-03-26T22:17:21.108Z,5.33
2019-03-26T22:20:23.059Z,5.39
2019-03-26T22:23:25.063Z,5.46
2019-03-26T22:26:27.037Z,5.50
2019-03-26T22:29:29.072Z,5.57
2019-03-26T22:32:31.024Z,5.66
2019-03-26T22:35:32.991Z,5.69
2019-03-26T22:38:34.924Z,5.68
2019-03-26T22:41:38.155Z,5.62
2019-03-26T22:44:40.076Z,5.58
2019-03-26T22:47:42.159Z,5.58
2019-03-26T22:50:44.070Z,5.63
2019-03-26T22:53:46.029Z,5.64
2019-03-26T22:56:48.006Z,5.63
2019-03-26T22:59:50.024Z,5.57
2019-03-26T23:02:51.968Z,5.56
2019-03-26T23:05:53.876Z,5.57
2019-03-26T23:08:55.872Z,5.59
2019-03-26T23:11:57.804Z,5.60
2019-03-26T23:15:00.510Z,5.63
2019-03-26T23:18:02.797Z,5.69
2019-03-26T23:21:04.791Z,5.68
2019-03-26T23:24:06.753Z,5.70
2019-03-26T23:27:08.917Z,5.72
2019-03-26T23:30:11.874Z,5.75
2019-03-26T23:33:15.094Z,5.78
2019-03-26T23:36:17.128Z,5.79
2019-03-26T23:39:19.120Z,5.81
2019-03-26T23:42:21.078Z,5.75
2019-03-26T23:45:23.112Z,5.74
2019-03-26T23:48:25.160Z,5.75
2019-03-26T23:51:27.167Z,5.74
2019-03-26T23:54:29.108Z,5.80
2019-03-26T23:57:31.091Z,5.77
